sensor_id;sensor_type;location;lat;lon;timestamp;temperature;humidity
14119;DHT22;7138;49.246;9.100;2023-02-28T00:00:41;-1.10;99.90
14119;DHT22;7138;49.246;9.100;2023-02-28T00:03:08;-1.10;99.90
14119;DHT22;7138;49.246;9.100;2023-02-28T00:05:34;-1.10;99.90
14119;DHT22;7138;49.246;9.100;2023-02-28T00:08:00;-1.10;99.90
14119;DHT22;7138;49.246;9.100;2023-02-28T00:10:29;-1.10;99.90
14119;DHT22;7138;49.246;9.100;2023-02-28T00:13:00;-1.10;99.90
14119;DHT22;7138;49.246;9.100;2023-02-28T00:15:28;-1.20;99.90
14119;DHT22;7138;49.246;9.100;2023-02-28T00:17:54;-1.20;99.90
14119;DHT22;7138;49.246;9.100;2023-02-28T00:20:20;-1.20;99.90
14119;DHT22;7138;49.246;9.100;2023-02-28T00:22:48;-1.20;99.90
14119;DHT22;7138;49.246;9.100;2023-02-28T00:25:17;-1.30;99.90
14119;DHT22;7138;49.246;9.100;2023-02-28T00:27:45;-1.30;99.90
14119;DHT22;7138;49.246;9.100;2023-02-28T00:30:17;-1.30;99.90
14119;DHT22;7138;49.246;9.100;2023-02-28T00:32:45;-1.40;99.90
14119;DHT22;7138;49.246;9.100;2023-02-28T00:35:11;-1.40;99.90
14119;DHT22;7138;49.246;9.100;2023-02-28T00:37:37;-1.40;99.90
14119;DHT22;7138;49.246;9.100;2023-02-28T00:40:05;-1.40;99.90
14119;DHT22;7138;49.246;9.100;2023-02-28T00:42:32;-1.40;99.90
14119;DHT22;7138;49.246;9.100;2023-02-28T00:44:59;-1.50;99.90
14119;DHT22;7138;49.246;9.100;2023-02-28T00:47:25;-1.40;99.90
14119;DHT22;7138;49.246;9.100;2023-02-28T00:49:53;-1.40;99.90
14119;DHT22;7138;49.246;9.100;2023-02-28T00:52:18;-1.50;99.90
14119;DHT22;7138;49.246;9.100;2023-02-28T00:54:44;-1.60;99.90
14119;DHT22;7138;49.246;9.100;2023-02-28T00:57:10;-1.60;99.90
14119;DHT22;7138;49.246;9.100;2023-02-28T00:59:36;-1.60;99.90
14119;DHT22;7138;49.246;9.100;2023-02-28T01:02:02;-1.70;99.90
14119;DHT22;7138;49.246;9.100;2023-02-28T01:04:27;-1.70;99.90
14119;DHT22;7138;49.246;9.100;2023-02-28T01:06:55;-1.80;99.90
14119;DHT22;7138;49.246;9.100;2023-02-28T01:09:21;-1.70;99.90
14119;DHT22;7138;49.246;9.100;2023-02-28T01:11:46;-1.70;99.90
14119;DHT22;7138;49.246;9.100;2023-02-28T01:14:13;-1.70;99.90
14119;DHT22;7138;49.246;9.100;2023-02-28T01:16:40;-1.80;99.90
14119;DHT22;7138;49.246;9.100;2023-02-28T01:19:06;-1.80;99.90
14119;DHT22;7138;49.246;9.100;2023-02-28T01:21:32;-1.70;99.90
14119;DHT22;7138;49.246;9.100;2023-02-28T01:24:00;-1.80;99.90
14119;DHT22;7138;49.246;9.100;2023-02-28T01:26:26;-1.80;99.90
14119;DHT22;7138;49.246;9.100;2023-02-28T01:28:53;-1.80;99.90
14119;DHT22;7138;49.246;9.100;2023-02-28T01:31:19;-1.90;99.90
14119;DHT22;7138;49.246;9.100;2023-02-28T01:33:47;-1.90;99.90
14119;DHT22;7138;49.246;9.100;2023-02-28T01:36:14;-1.90;99.90
14119;DHT22;7138;49.246;9.100;2023-02-28T01:38:42;-1.90;99.90
14119;DHT22;7138;49.246;9.100;2023-02-28T01:41:15;-1.90;99.90
14119;DHT22;7138;49.246;9.100;2023-02-28T01:43:54;-1.90;99.90
14119;DHT22;7138;49.246;9.100;2023-02-28T01:46:23;-1.90;99.90
14119;DHT22;7138;49.246;9.100;2023-02-28T01:48:52;-1.90;99.90
14119;DHT22;7138;49.246;9.100;2023-02-28T01:51:26;-2.00;99.90
14119;DHT22;7138;49.246;9.100;2023-02-28T01:53:57;-2.10;99.90
14119;DHT22;7138;49.246;9.100;2023-02-28T01:56:32;-2.00;99.90
14119;DHT22;7138;49.246;9.100;2023-02-28T01:59:01;-2.10;99.90
14119;DHT22;7138;49.246;9.100;2023-02-28T02:01:29;-2.10;99.90
14119;DHT22;7138;49.246;9.100;2023-02-28T02:03:58;-2.10;99.90
14119;DHT22;7138;49.246;9.100;2023-02-28T02:06:29;-2.10;99.90
14119;DHT22;7138;49.246;9.100;2023-02-28T02:08:59;-2.10;99.90
14119;DHT22;7138;49.246;9.100;2023-02-28T02:11:25;-2.10;99.90
14119;DHT22;7138;49.246;9.100;2023-02-28T02:13:59;-2.10;99.90
14119;DHT22;7138;49.246;9.100;2023-02-28T02:16:47;-2.10;99.90
14119;DHT22;7138;49.246;9.100;2023-02-28T02:23:01;-2.10;99.90
14119;DHT22;7138;49.246;9.100;2023-02-28T02:25:45;-2.30;99.90
14119;DHT22;7138;49.246;9.100;2023-02-28T02:28:54;-2.30;99.90
14119;DHT22;7138;49.246;9.100;2023-02-28T02:32:01;-2.30;99.90
14119;DHT22;7138;49.246;9.100;2023-02-28T02:34:48;-2.30;99.90
14119;DHT22;7138;49.246;9.100;2023-02-28T02:37:29;-2.30;99.90
14119;DHT22;7138;49.246;9.100;2023-02-28T02:40:10;-2.40;99.90
14119;DHT22;7138;49.246;9.100;2023-02-28T02:42:44;-2.40;99.90
14119;DHT22;7138;49.246;9.100;2023-02-28T02:45:19;-2.40;99.90
14119;DHT22;7138;49.246;9.100;2023-02-28T02:47:51;-2.50;99.90
14119;DHT22;7138;49.246;9.100;2023-02-28T02:50:24;-2.50;99.90
14119;DHT22;7138;49.246;9.100;2023-02-28T02:52:57;-2.50;99.90
14119;DHT22;7138;49.246;9.100;2023-02-28T02:55:28;-2.50;99.90
14119;DHT22;7138;49.246;9.100;2023-02-28T02:57:59;-2.50;99.90
14119;DHT22;7138;49.246;9.100;2023-02-28T03:00:31;-2.50;99.90
14119;DHT22;7138;49.246;9.100;2023-02-28T03:03:01;-2.50;99.90
14119;DHT22;7138;49.246;9.100;2023-02-28T03:05:32;-2.40;99.90
14119;DHT22;7138;49.246;9.100;2023-02-28T03:08:03;-2.50;99.90
14119;DHT22;7138;49.246;9.100;2023-02-28T03:10:37;-2.50;99.90
14119;DHT22;7138;49.246;9.100;2023-02-28T03:13:23;-2.50;99.90
14119;DHT22;7138;49.246;9.100;2023-02-28T03:16:41;-2.60;99.90
14119;DHT22;7138;49.246;9.100;2023-02-28T03:19:33;-2.60;99.90
14119;DHT22;7138;49.246;9.100;2023-02-28T03:22:29;-2.60;99.90
14119;DHT22;7138;49.246;9.100;2023-02-28T03:25:15;-2.70;99.90
14119;DHT22;7138;49.246;9.100;2023-02-28T03:27:52;-2.60;99.90
14119;DHT22;7138;49.246;9.100;2023-02-28T03:30:29;-2.70;99.90
14119;DHT22;7138;49.246;9.100;2023-02-28T03:33:06;-2.60;99.90
14119;DHT22;7138;49.246;9.100;2023-02-28T03:35:39;-2.60;99.90
14119;DHT22;7138;49.246;9.100;2023-02-28T03:38:11;-2.60;99.90
14119;DHT22;7138;49.246;9.100;2023-02-28T03:40:44;-2.60;99.90
14119;DHT22;7138;49.246;9.100;2023-02-28T03:43:18;-2.60;99.90
14119;DHT22;7138;49.246;9.100;2023-02-28T03:45:49;-2.50;99.90
14119;DHT22;7138;49.246;9.100;2023-02-28T03:48:19;-2.60;99.90
14119;DHT22;7138;49.246;9.100;2023-02-28T03:50:51;-2.60;99.90
14119;DHT22;7138;49.246;9.100;2023-02-28T03:53:26;-2.50;99.90
14119;DHT22;7138;49.246;9.100;2023-02-28T03:55:59;-2.50;99.90
14119;DHT22;7138;49.246;9.100;2023-02-28T03:58:37;-2.40;99.90
14119;DHT22;7138;49.246;9.100;2023-02-28T04:01:08;-2.40;99.90
14119;DHT22;7138;49.246;9.100;2023-02-28T04:03:38;-2.40;99.90
14119;DHT22;7138;49.246;9.100;2023-02-28T04:06:06;-2.40;99.90
14119;DHT22;7138;49.246;9.100;2023-02-28T04:08:39;-2.40;99.90
14119;DHT22;7138;49.246;9.100;2023-02-28T04:11:18;-2.40;99.90
14119;DHT22;7138;49.246;9.100;2023-02-28T04:13:46;-2.40;99.90
14119;DHT22;7138;49.246;9.100;2023-02-28T04:16:13;-2.30;99.90
14119;DHT22;7138;49.246;9.100;2023-02-28T04:18:39;-2.40;99.90
14119;DHT22;7138;49.246;9.100;2023-02-28T04:21:05;-2.40;99.90
14119;DHT22;7138;49.246;9.100;2023-02-28T04:23:31;-2.40;99.90
14119;DHT22;7138;49.246;9.100;2023-02-28T04:25:59;-2.30;99.90
14119;DHT22;7138;49.246;9.100;2023-02-28T04:28:26;-2.30;99.90
14119;DHT22;7138;49.246;9.100;2023-02-28T04:30:55;-2.30;99.90
14119;DHT22;7138;49.246;9.100;2023-02-28T04:33:21;-2.30;99.90
14119;DHT22;7138;49.246;9.100;2023-02-28T04:35:47;-2.30;99.90
14119;DHT22;7138;49.246;9.100;2023-02-28T04:38:13;-2.30;99.90
14119;DHT22;7138;49.246;9.100;2023-02-28T04:40:38;-2.30;99.90
14119;DHT22;7138;49.246;9.100;2023-02-28T04:43:05;-2.30;99.90
14119;DHT22;7138;49.246;9.100;2023-02-28T04:45:31;-2.30;99.90
14119;DHT22;7138;49.246;9.100;2023-02-28T04:47:59;-2.30;99.90
14119;DHT22;7138;49.246;9.100;2023-02-28T04:50:25;-2.30;99.90
14119;DHT22;7138;49.246;9.100;2023-02-28T04:52:50;-2.30;99.90
14119;DHT22;7138;49.246;9.100;2023-02-28T04:55:16;-2.30;99.90
14119;DHT22;7138;49.246;9.100;2023-02-28T04:57:42;-2.40;99.90
14119;DHT22;7138;49.246;9.100;2023-02-28T05:00:10;-2.40;99.90
14119;DHT22;7138;49.246;9.100;2023-02-28T05:02:38;-2.40;99.90
14119;DHT22;7138;49.246;9.100;2023-02-28T05:05:05;-2.30;99.90
14119;DHT22;7138;49.246;9.100;2023-02-28T05:07:31;-2.30;99.90
14119;DHT22;7138;49.246;9.100;2023-02-28T05:09:57;-2.30;99.90
14119;DHT22;7138;49.246;9.100;2023-02-28T05:12:23;-2.30;99.90
14119;DHT22;7138;49.246;9.100;2023-02-28T05:14:48;-2.30;99.90
14119;DHT22;7138;49.246;9.100;2023-02-28T05:17:16;-2.30;99.90
14119;DHT22;7138;49.246;9.100;2023-02-28T05:19:42;-2.30;99.90
14119;DHT22;7138;49.246;9.100;2023-02-28T05:22:13;-2.30;99.90
14119;DHT22;7138;49.246;9.100;2023-02-28T05:24:40;-2.30;99.90
14119;DHT22;7138;49.246;9.100;2023-02-28T05:27:07;-2.30;99.90
14119;DHT22;7138;49.246;9.100;2023-02-28T05:29:34;-2.30;99.90
14119;DHT22;7138;49.246;9.100;2023-02-28T05:32:09;-2.30;99.90
14119;DHT22;7138;49.246;9.100;2023-02-28T05:34:37;-2.30;99.90
14119;DHT22;7138;49.246;9.100;2023-02-28T05:37:04;-2.40;99.90
14119;DHT22;7138;49.246;9.100;2023-02-28T05:39:30;-2.40;99.90
14119;DHT22;7138;49.246;9.100;2023-02-28T05:41:56;-2.40;99.90
14119;DHT22;7138;49.246;9.100;2023-02-28T05:44:21;-2.40;99.90
14119;DHT22;7138;49.246;9.100;2023-02-28T05:46:47;-2.40;99.90
14119;DHT22;7138;49.246;9.100;2023-02-28T05:49:13;-2.40;99.90
14119;DHT22;7138;49.246;9.100;2023-02-28T05:51:40;-2.30;99.90
14119;DHT22;7138;49.246;9.100;2023-02-28T05:54:07;-2.30;99.90
14119;DHT22;7138;49.246;9.100;2023-02-28T05:56:32;-2.30;99.90
14119;DHT22;7138;49.246;9.100;2023-02-28T05:59:00;-2.30;99.90
14119;DHT22;7138;49.246;9.100;2023-02-28T06:01:32;-2.30;99.90
14119;DHT22;7138;49.246;9.100;2023-02-28T06:04:00;-2.40;99.90
14119;DHT22;7138;49.246;9.100;2023-02-28T06:06:26;-2.40;99.90
14119;DHT22;7138;49.246;9.100;2023-02-28T06:08:54;-2.40;99.90
14119;DHT22;7138;49.246;9.100;2023-02-28T06:11:20;-2.40;99.90
14119;DHT22;7138;49.246;9.100;2023-02-28T06:13:46;-2.40;99.90
14119;DHT22;7138;49.246;9.100;2023-02-28T06:16:12;-2.50;99.90
14119;DHT22;7138;49.246;9.100;2023-02-28T06:18:38;-2.50;99.90
14119;DHT22;7138;49.246;9.100;2023-02-28T06:21:04;-2.50;99.90
14119;DHT22;7138;49.246;9.100;2023-02-28T06:23:30;-2.50;99.90
14119;DHT22;7138;49.246;9.100;2023-02-28T06:25:57;-2.50;99.90
14119;DHT22;7138;49.246;9.100;2023-02-28T06:28:24;-2.60;99.90
14119;DHT22;7138;49.246;9.100;2023-02-28T06:30:50;-2.60;99.90
14119;DHT22;7138;49.246;9.100;2023-02-28T06:33:16;-2.50;99.90
14119;DHT22;7138;49.246;9.100;2023-02-28T06:35:44;-2.50;99.90
14119;DHT22;7138;49.246;9.100;2023-02-28T06:38:10;-2.50;99.90
14119;DHT22;7138;49.246;9.100;2023-02-28T06:40:36;-2.50;99.90
14119;DHT22;7138;49.246;9.100;2023-02-28T06:43:03;-2.40;99.90
14119;DHT22;7138;49.246;9.100;2023-02-28T06:45:29;-2.30;99.90
14119;DHT22;7138;49.246;9.100;2023-02-28T06:47:55;-2.20;99.90
14119;DHT22;7138;49.246;9.100;2023-02-28T06:50:21;-2.10;99.90
14119;DHT22;7138;49.246;9.100;2023-02-28T06:52:47;-2.00;99.90
14119;DHT22;7138;49.246;9.100;2023-02-28T06:55:13;-2.00;99.90
14119;DHT22;7138;49.246;9.100;2023-02-28T06:57:39;-2.00;99.90
14119;DHT22;7138;49.246;9.100;2023-02-28T07:00:09;-1.90;99.90
14119;DHT22;7138;49.246;9.100;2023-02-28T07:02:36;-1.80;99.90
14119;DHT22;7138;49.246;9.100;2023-02-28T07:05:03;-1.70;99.90
14119;DHT22;7138;49.246;9.100;2023-02-28T07:07:30;-1.70;99.90
14119;DHT22;7138;49.246;9.100;2023-02-28T07:09:56;-1.50;99.90
14119;DHT22;7138;49.246;9.100;2023-02-28T07:12:22;-1.50;99.90
14119;DHT22;7138;49.246;9.100;2023-02-28T07:14:47;-1.50;99.90
14119;DHT22;7138;49.246;9.100;2023-02-28T07:17:15;-1.40;99.90
14119;DHT22;7138;49.246;9.100;2023-02-28T07:19:40;-1.40;99.90
14119;DHT22;7138;49.246;9.100;2023-02-28T07:22:07;-1.20;99.90
14119;DHT22;7138;49.246;9.100;2023-02-28T07:24:33;-1.10;99.90
14119;DHT22;7138;49.246;9.100;2023-02-28T07:26:59;-1.10;99.90
14119;DHT22;7138;49.246;9.100;2023-02-28T07:29:25;-1.00;99.90
14119;DHT22;7138;49.246;9.100;2023-02-28T07:31:51;-1.10;99.90
14119;DHT22;7138;49.246;9.100;2023-02-28T07:34:20;-0.90;99.90
14119;DHT22;7138;49.246;9.100;2023-02-28T07:36:46;-0.70;99.90
14119;DHT22;7138;49.246;9.100;2023-02-28T07:39:11;-0.80;99.90
14119;DHT22;7138;49.246;9.100;2023-02-28T07:41:37;-0.80;99.90
14119;DHT22;7138;49.246;9.100;2023-02-28T07:44:08;-0.50;99.90
14119;DHT22;7138;49.246;9.100;2023-02-28T07:46:34;-0.50;99.90
14119;DHT22;7138;49.246;9.100;2023-02-28T07:49:02;-0.60;99.90
14119;DHT22;7138;49.246;9.100;2023-02-28T07:51:30;-0.40;99.90
14119;DHT22;7138;49.246;9.100;2023-02-28T07:53:56;-0.50;99.90
14119;DHT22;7138;49.246;9.100;2023-02-28T07:56:23;-0.30;99.90
14119;DHT22;7138;49.246;9.100;2023-02-28T07:58:49;-0.10;99.90
14119;DHT22;7138;49.246;9.100;2023-02-28T08:01:15;-0.10;99.90
14119;DHT22;7138;49.246;9.100;2023-02-28T08:03:42;-0.10;99.90
14119;DHT22;7138;49.246;9.100;2023-02-28T08:06:15;0.00;99.90
14119;DHT22;7138;49.246;9.100;2023-02-28T08:08:43;-0.10;99.90
14119;DHT22;7138;49.246;9.100;2023-02-28T08:11:09;0.00;99.90
14119;DHT22;7138;49.246;9.100;2023-02-28T08:13:35;0.00;99.90
14119;DHT22;7138;49.246;9.100;2023-02-28T08:16:02;0.00;99.90
14119;DHT22;7138;49.246;9.100;2023-02-28T08:18:28;0.20;99.90
14119;DHT22;7138;49.246;9.100;2023-02-28T08:20:54;0.20;99.90
14119;DHT22;7138;49.246;9.100;2023-02-28T08:23:19;0.20;99.90
14119;DHT22;7138;49.246;9.100;2023-02-28T08:25:52;0.30;99.90
14119;DHT22;7138;49.246;9.100;2023-02-28T08:28:19;0.20;99.90
14119;DHT22;7138;49.246;9.100;2023-02-28T08:30:44;0.20;99.90
14119;DHT22;7138;49.246;9.100;2023-02-28T08:33:10;0.10;99.90
14119;DHT22;7138;49.246;9.100;2023-02-28T08:35:36;0.00;99.90
14119;DHT22;7138;49.246;9.100;2023-02-28T08:38:02;0.00;99.90
14119;DHT22;7138;49.246;9.100;2023-02-28T08:40:28;0.30;99.90
14119;DHT22;7138;49.246;9.100;2023-02-28T08:42:56;0.20;99.90
14119;DHT22;7138;49.246;9.100;2023-02-28T08:45:21;0.60;99.90
14119;DHT22;7138;49.246;9.100;2023-02-28T08:47:47;0.70;99.90
14119;DHT22;7138;49.246;9.100;2023-02-28T08:50:13;0.40;99.90
14119;DHT22;7138;49.246;9.100;2023-02-28T08:52:42;0.60;99.90
14119;DHT22;7138;49.246;9.100;2023-02-28T08:55:09;0.80;99.90
14119;DHT22;7138;49.246;9.100;2023-02-28T08:57:35;0.90;99.90
14119;DHT22;7138;49.246;9.100;2023-02-28T09:00:03;1.00;99.90
14119;DHT22;7138;49.246;9.100;2023-02-28T09:02:29;1.10;99.90
14119;DHT22;7138;49.246;9.100;2023-02-28T09:04:55;1.00;99.90
14119;DHT22;7138;49.246;9.100;2023-02-28T09:07:21;1.20;99.90
14119;DHT22;7138;49.246;9.100;2023-02-28T09:09:47;1.20;99.90
14119;DHT22;7138;49.246;9.100;2023-02-28T09:12:19;1.60;99.90
14119;DHT22;7138;49.246;9.100;2023-02-28T09:14:45;1.60;99.90
14119;DHT22;7138;49.246;9.100;2023-02-28T09:17:12;1.80;99.90
14119;DHT22;7138;49.246;9.100;2023-02-28T09:19:38;1.90;99.90
14119;DHT22;7138;49.246;9.100;2023-02-28T09:22:04;1.70;99.90
14119;DHT22;7138;49.246;9.100;2023-02-28T09:24:30;1.40;99.90
14119;DHT22;7138;49.246;9.100;2023-02-28T09:26:57;1.60;99.90
14119;DHT22;7138;49.246;9.100;2023-02-28T09:29:23;1.70;99.90
14119;DHT22;7138;49.246;9.100;2023-02-28T09:31:48;1.80;99.90
14119;DHT22;7138;49.246;9.100;2023-02-28T09:34:16;2.00;99.90
14119;DHT22;7138;49.246;9.100;2023-02-28T09:36:42;2.00;99.90
14119;DHT22;7138;49.246;9.100;2023-02-28T09:39:08;2.00;99.90
14119;DHT22;7138;49.246;9.100;2023-02-28T09:41:38;2.20;99.90
14119;DHT22;7138;49.246;9.100;2023-02-28T09:44:16;2.10;99.90
14119;DHT22;7138;49.246;9.100;2023-02-28T09:46:49;2.30;99.90
14119;DHT22;7138;49.246;9.100;2023-02-28T09:49:24;2.40;99.90
14119;DHT22;7138;49.246;9.100;2023-02-28T09:51:58;2.80;99.90
14119;DHT22;7138;49.246;9.100;2023-02-28T09:54:28;2.40;99.90
14119;DHT22;7138;49.246;9.100;2023-02-28T09:56:59;3.00;99.90
14119;DHT22;7138;49.246;9.100;2023-02-28T09:59:38;2.80;99.90
14119;DHT22;7138;49.246;9.100;2023-02-28T10:02:21;2.70;99.90
14119;DHT22;7138;49.246;9.100;2023-02-28T10:05:09;2.70;99.90
14119;DHT22;7138;49.246;9.100;2023-02-28T10:08:03;2.90;99.90
14119;DHT22;7138;49.246;9.100;2023-02-28T10:10:39;3.10;99.90
14119;DHT22;7138;49.246;9.100;2023-02-28T10:13:14;2.80;99.90
14119;DHT22;7138;49.246;9.100;2023-02-28T10:15:45;3.20;99.90
14119;DHT22;7138;49.246;9.100;2023-02-28T10:18:20;3.40;99.90
14119;DHT22;7138;49.246;9.100;2023-02-28T10:20:51;3.40;99.90
14119;DHT22;7138;49.246;9.100;2023-02-28T10:23:23;3.10;99.90
14119;DHT22;7138;49.246;9.100;2023-02-28T10:25:57;3.10;99.90
14119;DHT22;7138;49.246;9.100;2023-02-28T10:28:25;2.80;99.90
14119;DHT22;7138;49.246;9.100;2023-02-28T10:30:55;2.80;99.90
14119;DHT22;7138;49.246;9.100;2023-02-28T10:33:24;2.50;99.90
14119;DHT22;7138;49.246;9.100;2023-02-28T10:35:54;2.80;99.90
14119;DHT22;7138;49.246;9.100;2023-02-28T10:38:23;3.30;99.90
14119;DHT22;7138;49.246;9.100;2023-02-28T10:40:50;3.90;99.90
14119;DHT22;7138;49.246;9.100;2023-02-28T10:43:23;3.60;99.90
14119;DHT22;7138;49.246;9.100;2023-02-28T10:45:56;3.60;99.90
14119;DHT22;7138;49.246;9.100;2023-02-28T10:48:29;3.70;99.90
14119;DHT22;7138;49.246;9.100;2023-02-28T10:51:00;3.80;99.90
14119;DHT22;7138;49.246;9.100;2023-02-28T10:53:32;4.40;99.90
14119;DHT22;7138;49.246;9.100;2023-02-28T10:56:03;4.50;99.90
14119;DHT22;7138;49.246;9.100;2023-02-28T10:58:46;4.00;99.90
14119;DHT22;7138;49.246;9.100;2023-02-28T11:01:16;3.80;99.90
14119;DHT22;7138;49.246;9.100;2023-02-28T11:03:44;4.30;99.90
14119;DHT22;7138;49.246;9.100;2023-02-28T11:06:16;4.00;99.90
14119;DHT22;7138;49.246;9.100;2023-02-28T11:08:46;4.00;99.90
14119;DHT22;7138;49.246;9.100;2023-02-28T11:11:15;4.60;99.90
14119;DHT22;7138;49.246;9.100;2023-02-28T11:13:44;4.50;99.90
14119;DHT22;7138;49.246;9.100;2023-02-28T11:16:13;4.80;99.90
14119;DHT22;7138;49.246;9.100;2023-02-28T11:18:44;4.60;99.90
14119;DHT22;7138;49.246;9.100;2023-02-28T11:21:21;4.60;99.90
14119;DHT22;7138;49.246;9.100;2023-02-28T11:23:53;4.60;99.90
14119;DHT22;7138;49.246;9.100;2023-02-28T11:26:36;4.40;99.90
14119;DHT22;7138;49.246;9.100;2023-02-28T11:29:19;4.00;99.90
14119;DHT22;7138;49.246;9.100;2023-02-28T11:32:05;3.50;99.90
14119;DHT22;7138;49.246;9.100;2023-02-28T11:34:38;3.90;99.90
14119;DHT22;7138;49.246;9.100;2023-02-28T11:37:12;4.20;99.90
14119;DHT22;7138;49.246;9.100;2023-02-28T11:39:42;4.00;99.90
14119;DHT22;7138;49.246;9.100;2023-02-28T11:42:27;3.90;99.90
14119;DHT22;7138;49.246;9.100;2023-02-28T11:45:14;4.00;99.90
14119;DHT22;7138;49.246;9.100;2023-02-28T11:47:53;3.60;99.90
14119;DHT22;7138;49.246;9.100;2023-02-28T11:50:39;3.20;99.90
14119;DHT22;7138;49.246;9.100;2023-02-28T11:53:22;3.30;99.90
14119;DHT22;7138;49.246;9.100;2023-02-28T11:55:54;3.40;99.90
14119;DHT22;7138;49.246;9.100;2023-02-28T11:58:36;3.50;99.90
14119;DHT22;7138;49.246;9.100;2023-02-28T12:01:22;3.30;99.90
14119;DHT22;7138;49.246;9.100;2023-02-28T12:04:08;3.20;99.90
14119;DHT22;7138;49.246;9.100;2023-02-28T12:06:47;3.00;99.90
14119;DHT22;7138;49.246;9.100;2023-02-28T12:09:38;3.10;99.90
14119;DHT22;7138;49.246;9.100;2023-02-28T12:12:21;3.30;99.90
14119;DHT22;7138;49.246;9.100;2023-02-28T12:15:21;3.60;99.90
14119;DHT22;7138;49.246;9.100;2023-02-28T12:18:00;3.40;99.90
14119;DHT22;7138;49.246;9.100;2023-02-28T12:20:40;3.40;99.90
14119;DHT22;7138;49.246;9.100;2023-02-28T12:23:25;3.50;99.90
14119;DHT22;7138;49.246;9.100;2023-02-28T12:26:17;3.40;99.90
14119;DHT22;7138;49.246;9.100;2023-02-28T12:28:53;3.70;99.90
14119;DHT22;7138;49.246;9.100;2023-02-28T12:31:27;3.70;99.90
14119;DHT22;7138;49.246;9.100;2023-02-28T12:34:03;3.70;99.90
14119;DHT22;7138;49.246;9.100;2023-02-28T12:36:36;4.20;99.90
14119;DHT22;7138;49.246;9.100;2023-02-28T12:39:07;4.00;99.90
14119;DHT22;7138;49.246;9.100;2023-02-28T12:41:42;4.00;99.90
14119;DHT22;7138;49.246;9.100;2023-02-28T12:44:15;4.00;99.90
14119;DHT22;7138;49.246;9.100;2023-02-28T12:46:48;3.90;99.90
14119;DHT22;7138;49.246;9.100;2023-02-28T12:49:21;4.20;99.90
14119;DHT22;7138;49.246;9.100;2023-02-28T12:51:51;4.00;99.90
14119;DHT22;7138;49.246;9.100;2023-02-28T12:54:23;3.60;99.90
14119;DHT22;7138;49.246;9.100;2023-02-28T12:57:02;3.50;99.90
14119;DHT22;7138;49.246;9.100;2023-02-28T12:59:39;3.50;99.90
14119;DHT22;7138;49.246;9.100;2023-02-28T13:05:59;3.80;99.90
14119;DHT22;7138;49.246;9.100;2023-02-28T13:09:04;3.90;99.90
14119;DHT22;7138;49.246;9.100;2023-02-28T13:11:40;3.70;99.90
14119;DHT22;7138;49.246;9.100;2023-02-28T13:14:20;3.70;99.90
14119;DHT22;7138;49.246;9.100;2023-02-28T13:16:59;3.80;99.90
14119;DHT22;7138;49.246;9.100;2023-02-28T13:19:29;3.80;99.90
14119;DHT22;7138;49.246;9.100;2023-02-28T13:21:58;3.70;99.90
14119;DHT22;7138;49.246;9.100;2023-02-28T13:24:43;3.80;99.90
14119;DHT22;7138;49.246;9.100;2023-02-28T13:27:33;4.10;99.90
14119;DHT22;7138;49.246;9.100;2023-02-28T13:33:28;4.00;99.90
14119;DHT22;7138;49.246;9.100;2023-02-28T13:36:10;4.10;99.90
14119;DHT22;7138;49.246;9.100;2023-02-28T13:38:50;4.10;99.90
14119;DHT22;7138;49.246;9.100;2023-02-28T13:41:44;4.20;99.90
14119;DHT22;7138;49.246;9.100;2023-02-28T13:44:16;4.20;99.90
14119;DHT22;7138;49.246;9.100;2023-02-28T13:50:19;4.10;99.90
14119;DHT22;7138;49.246;9.100;2023-02-28T13:52:55;4.30;99.90
14119;DHT22;7138;49.246;9.100;2023-02-28T13:55:35;4.30;99.90
14119;DHT22;7138;49.246;9.100;2023-02-28T13:58:34;4.40;99.90
14119;DHT22;7138;49.246;9.100;2023-02-28T14:01:26;4.70;99.90
14119;DHT22;7138;49.246;9.100;2023-02-28T14:04:21;4.50;99.90
14119;DHT22;7138;49.246;9.100;2023-02-28T14:07:17;4.20;99.90
14119;DHT22;7138;49.246;9.100;2023-02-28T14:09:50;4.30;99.90
14119;DHT22;7138;49.246;9.100;2023-02-28T14:15:50;4.50;99.90
14119;DHT22;7138;49.246;9.100;2023-02-28T14:18:30;4.40;99.90
14119;DHT22;7138;49.246;9.100;2023-02-28T14:21:13;4.30;99.90
14119;DHT22;7138;49.246;9.100;2023-02-28T14:24:22;4.50;99.90
14119;DHT22;7138;49.246;9.100;2023-02-28T14:27:08;4.50;99.90
14119;DHT22;7138;49.246;9.100;2023-02-28T14:32:51;4.20;99.90
14119;DHT22;7138;49.246;9.100;2023-02-28T14:35:43;4.10;99.90
14119;DHT22;7138;49.246;9.100;2023-02-28T14:38:22;4.10;99.90
14119;DHT22;7138;49.246;9.100;2023-02-28T14:40:52;4.20;99.90
14119;DHT22;7138;49.246;9.100;2023-02-28T14:43:22;4.30;99.90
14119;DHT22;7138;49.246;9.100;2023-02-28T14:45:51;4.40;99.90
14119;DHT22;7138;49.246;9.100;2023-02-28T14:48:20;4.60;99.90
14119;DHT22;7138;49.246;9.100;2023-02-28T14:50:49;4.80;99.90
14119;DHT22;7138;49.246;9.100;2023-02-28T14:53:20;4.50;99.90
14119;DHT22;7138;49.246;9.100;2023-02-28T14:55:49;4.70;99.90
14119;DHT22;7138;49.246;9.100;2023-02-28T14:58:24;4.70;99.90
14119;DHT22;7138;49.246;9.100;2023-02-28T15:00:53;4.70;99.90
14119;DHT22;7138;49.246;9.100;2023-02-28T15:03:22;4.70;99.90
14119;DHT22;7138;49.246;9.100;2023-02-28T15:05:54;4.90;99.90
14119;DHT22;7138;49.246;9.100;2023-02-28T15:08:23;4.90;99.90
14119;DHT22;7138;49.246;9.100;2023-02-28T15:10:54;4.80;99.90
14119;DHT22;7138;49.246;9.100;2023-02-28T15:13:22;4.50;99.90
14119;DHT22;7138;49.246;9.100;2023-02-28T15:15:52;4.40;99.90
14119;DHT22;7138;49.246;9.100;2023-02-28T15:18:31;4.50;99.90
14119;DHT22;7138;49.246;9.100;2023-02-28T15:21:07;4.60;99.90
14119;DHT22;7138;49.246;9.100;2023-02-28T15:23:38;4.60;99.90
14119;DHT22;7138;49.246;9.100;2023-02-28T15:26:10;4.60;99.90
14119;DHT22;7138;49.246;9.100;2023-02-28T15:28:42;4.70;99.90
14119;DHT22;7138;49.246;9.100;2023-02-28T15:31:20;4.70;99.90
14119;DHT22;7138;49.246;9.100;2023-02-28T15:33:56;4.60;99.90
14119;DHT22;7138;49.246;9.100;2023-02-28T15:36:26;4.60;99.90
14119;DHT22;7138;49.246;9.100;2023-02-28T15:38:55;4.60;99.90
14119;DHT22;7138;49.246;9.100;2023-02-28T15:41:25;4.50;99.90
14119;DHT22;7138;49.246;9.100;2023-02-28T15:44:17;4.50;99.90
14119;DHT22;7138;49.246;9.100;2023-02-28T15:46:55;4.40;99.90
14119;DHT22;7138;49.246;9.100;2023-02-28T15:49:25;4.30;99.90
14119;DHT22;7138;49.246;9.100;2023-02-28T15:51:52;4.30;99.90
14119;DHT22;7138;49.246;9.100;2023-02-28T15:54:24;4.30;99.90
14119;DHT22;7138;49.246;9.100;2023-02-28T15:56:56;4.40;99.90
14119;DHT22;7138;49.246;9.100;2023-02-28T15:59:26;4.30;99.90
14119;DHT22;7138;49.246;9.100;2023-02-28T16:02:13;4.20;99.90
14119;DHT22;7138;49.246;9.100;2023-02-28T16:05:00;4.10;99.90
14119;DHT22;7138;49.246;9.100;2023-02-28T16:07:43;4.00;99.90
14119;DHT22;7138;49.246;9.100;2023-02-28T16:10:12;3.90;99.90
14119;DHT22;7138;49.246;9.100;2023-02-28T16:12:40;3.90;99.90
14119;DHT22;7138;49.246;9.100;2023-02-28T16:15:14;3.70;99.90
14119;DHT22;7138;49.246;9.100;2023-02-28T16:17:44;3.70;99.90
14119;DHT22;7138;49.246;9.100;2023-02-28T16:20:13;3.70;99.90
14119;DHT22;7138;49.246;9.100;2023-02-28T16:22:41;3.60;99.90
14119;DHT22;7138;49.246;9.100;2023-02-28T16:25:12;3.50;99.90
14119;DHT22;7138;49.246;9.100;2023-02-28T16:27:38;3.50;99.90
14119;DHT22;7138;49.246;9.100;2023-02-28T16:30:06;3.40;99.90
14119;DHT22;7138;49.246;9.100;2023-02-28T16:32:36;3.30;99.90
14119;DHT22;7138;49.246;9.100;2023-02-28T16:35:02;3.20;99.90
14119;DHT22;7138;49.246;9.100;2023-02-28T16:37:30;3.20;99.90
14119;DHT22;7138;49.246;9.100;2023-02-28T16:39:57;3.00;99.90
14119;DHT22;7138;49.246;9.100;2023-02-28T16:42:26;3.10;99.90
14119;DHT22;7138;49.246;9.100;2023-02-28T16:44:54;3.00;99.90